Salome, AZ (85348)

2:46 PM MST on July 29, 2016 (GMT -0700)
Outback Ranch | | Change Station

Elev 1980 ft 33.85 °N, 113.57 °W | Updated 56 seconds ago

Clear
Clear
105.9 °F
Feels Like 108 °F
N
11.0
Wind Variable Wind from SW
Gusts 11.0 mph

Today
High -- | Low -- °F
--% Chance of Precip.
Yesterday
High -- | Low -- °F
Precip. -- in
Pressure 29.72 in
Visibility 10.0 miles
Clouds Clear
Heat Index 108 °F
Dew Point 60 °F
Humidity 23%
Rainfall 0.00 in
Snow Depth Not available.
5:44 AM 7:36 PM
Waning Crescent, 19% visible
SPECI KLUF 292102Z AUTO 22014G18KT 10SM CLR 42/16 A2972 RMK AO2 WSHFT 2059
Pressure 29.72 in
Visibility 10.0 miles
Clouds Clear
Heat Index 108 °F
Dew Point 60 °F
Humidity 23%
Rainfall 0.00 in
Snow Depth Not available.
5:44 AM 7:36 PM
Waning Crescent, 19% visible
SPECI KLUF 292102Z AUTO 22014G18KT 10SM CLR 42/16 A2972 RMK AO2 WSHFT 2059

10-Day Weather Forecast

Almanac

Astronomy

Jul. 29, 2016 Rise Set
Actual Time
Civil Twilight
Nautical Twilight
Astronomical Twilight
Moon
Length of Visible Light
Length of Day
Tomorrow will be .
, % of the Moon is Illuminated

Today's Extremes

State Highs State Lows

Community

WunderPhotos

Upload Photos

1,928,423 photos uploaded!

WunderBlog® & News

Nearby

Air Quality

  Air Quality AQ Index Pollutant
Not available.

Snow Depth

Station Depth Elevation

Earthquake Activity

City Distance Mag. Time & Date
Minimum magnitude displayed is 2.5.

Coastal Water Temperatures

Place Temperature

Stations

Nearby Weather Stations

Station Location Temp. Windchill Dew Point Humidity Wind Precip. Elev Updated Type
                   

Watches & Warnings

There are currently no watches in effect.